首页
METAR-TAF:

METAR-TAF

机场 :

贝鲁特, 黎巴嫩

纬度: 33-49N, 经度: 035-29E, 海拔: 29米

当前天气观测

该预报发布于52分钟前的01:00 UTC
风速6节,风向东南,在之间变化
温度 12°C
湿度 58%
气压 1018 hPa
能見度: 8000
散云层高于8000英尺

METAR: OLBA 230100Z 14006KT 080V180 8000 SCT080 12/04 Q1018 NOSIG

时间: 03:52 (01:52 UTC)

预报

该预报发布于3小时和52分钟前的22:00 UTC
预报有效从23日的 00点(UTC)到 24日的 06点(UTC)
风速4节,风向东转东南
能見度: 8000
成为
从 23日的 06点(UTC)到 23日的 09点(UTC)
风速10节,风向北转西北
短暂存在
从 23日的 08点(UTC)到 23日的 14点(UTC)
能見度: 5000
成为
从 23日的 18点(UTC)到 23日的 20点(UTC)
风速4节,风向

TAF: OLBA 222200Z 2300/2406 12004KT 8000 NSC BECMG 2306/2309 34010KT TEMPO 2308/2314 5000 HZ BECMG 2318/2320 10004KT

超过4000个机场的气象观测和天气预报(METAR&TAF报告)。

可查询的气象台以黄色和红色小点在地图上表示。

将鼠标移到小点上方,可查看气象台名称。

然后点击查看天气观测和预报。

如需切换地图:点击带黑十字的绿色按钮放大地图;点击带横线的绿色按钮缩小地图;或者点击绿色箭头查看邻近地区的地图。


METAR-TAF: